createdAt,value
2022-11-22T00:00:08.599Z,93.95
2022-11-22T00:02:30.809Z,83.60
2022-11-22T00:04:32.687Z,86.43
2022-11-22T00:06:34.882Z,88.85
2022-11-22T00:08:36.694Z,86.22
2022-11-22T00:10:38.622Z,90.60
2022-11-22T00:12:41.522Z,87.78
2022-11-22T00:14:43.403Z,88.00
2022-11-22T00:16:45.159Z,93.78
2022-11-22T00:18:47.298Z,88.82
2022-11-22T00:20:49.089Z,91.10
2022-11-22T00:22:50.886Z,89.53
2022-11-22T00:24:53.074Z,93.18
2022-11-22T00:26:54.823Z,91.18
2022-11-22T00:28:56.719Z,90.28
2022-11-22T00:30:58.849Z,85.10
2022-11-22T00:33:00.626Z,92.45
2022-11-22T00:35:02.907Z,91.60
2022-11-22T00:37:05.078Z,91.32
2022-11-22T00:39:06.853Z,92.90
2022-11-22T00:41:08.875Z,86.63
2022-11-22T00:43:11.021Z,91.15
2022-11-22T00:45:13.038Z,90.40
2022-11-22T00:47:15.086Z,94.47
2022-11-22T00:49:17.299Z,90.43
2022-11-22T00:51:19.086Z,98.38
2022-11-22T00:53:20.974Z,84.63
2022-11-22T00:55:23.090Z,90.15
2022-11-22T00:57:24.923Z,96.53
2022-11-22T00:59:27.177Z,93.15
2022-11-22T01:01:29.669Z,91.32
2022-11-22T01:03:31.543Z,90.82
2022-11-22T01:05:33.500Z,92.40
2022-11-22T01:07:35.645Z,100.22
2022-11-22T01:09:37.640Z,96.85
2022-11-22T01:11:39.398Z,92.60
2022-11-22T01:13:41.500Z,99.97
2022-11-22T01:15:43.255Z,98.28
2022-11-22T01:17:45.218Z,94.05
2022-11-22T01:19:47.310Z,96.00
2022-11-22T01:21:49.095Z,105.57
2022-11-22T01:23:51.456Z,96.70
2022-11-22T01:25:53.598Z,96.60
2022-11-22T01:27:55.378Z,97.78
2022-11-22T01:29:57.297Z,90.95
2022-11-22T01:31:59.426Z,88.53
2022-11-22T01:34:01.231Z,96.25
2022-11-22T01:36:03.330Z,94.95
2022-11-22T01:38:05.461Z,99.53
2022-11-22T01:40:07.870Z,90.68
2022-11-22T01:42:11.353Z,97.28
2022-11-22T01:44:25.578Z,99.10
2022-11-22T01:46:34.906Z,96.82
2022-11-22T01:48:49.014Z,103.72
2022-11-22T01:50:57.421Z,105.43
2022-11-22T01:53:04.287Z,104.50
2022-11-22T01:55:12.881Z,104.38
2022-11-22T01:57:19.398Z,101.32
2022-11-22T01:59:25.206Z,99.32
2022-11-22T02:01:28.510Z,106.03
2022-11-22T02:03:33.388Z,106.15
2022-11-22T02:05:35.861Z,105.85
2022-11-22T02:07:51.781Z,118.28
2022-11-22T02:09:54.300Z,110.82
2022-11-22T02:12:00.379Z,106.10
2022-11-22T02:14:03.778Z,115.90
2022-11-22T02:16:06.909Z,106.97
2022-11-22T02:18:09.282Z,117.63
2022-11-22T02:20:11.738Z,114.82
2022-11-22T02:22:34.000Z,113.50
2022-11-22T02:24:43.985Z,112.55
2022-11-22T02:26:46.149Z,108.57
2022-11-22T02:28:49.770Z,110.72
2022-11-22T02:30:51.576Z,112.40
2022-11-22T02:32:53.386Z,109.68
2022-11-22T02:34:55.479Z,115.60
2022-11-22T02:36:57.526Z,123.78
2022-11-22T02:38:59.379Z,123.40
2022-11-22T02:41:08.724Z,118.70
2022-11-22T02:43:17.943Z,112.47
2022-11-22T02:45:19.838Z,105.97
2022-11-22T02:47:22.161Z,122.32
2022-11-22T02:49:25.168Z,111.20
2022-11-22T02:51:27.109Z,115.78
2022-11-22T02:53:31.734Z,119.82
2022-11-22T02:55:33.980Z,116.43
2022-11-22T02:57:35.852Z,110.57
2022-11-22T02:59:37.995Z,115.13
2022-11-22T03:01:40.758Z,114.97
2022-11-22T03:03:42.545Z,113.18
2022-11-22T03:05:44.906Z,119.07
2022-11-22T03:07:46.772Z,117.67
2022-11-22T03:09:48.568Z,125.63
2022-11-22T03:11:50.862Z,112.70
2022-11-22T03:13:52.672Z,86.32
2022-11-22T03:15:54.528Z,116.30
2022-11-22T03:18:00.941Z,118.15
2022-11-22T03:20:03.351Z,120.82
2022-11-22T03:22:05.407Z,113.57
2022-11-22T03:24:08.403Z,118.72
2022-11-22T03:26:11.399Z,112.80
2022-11-22T03:30:15.806Z,121.00
2022-11-22T03:32:17.594Z,114.07
2022-11-22T03:34:19.403Z,117.07
2022-11-22T03:36:21.926Z,109.97
2022-11-22T03:38:23.836Z,128.23
2022-11-22T03:40:25.618Z,118.65
2022-11-22T03:42:28.229Z,107.88
2022-11-22T03:44:29.994Z,117.73
2022-11-22T03:46:31.978Z,117.60
2022-11-22T03:48:34.115Z,126.70
2022-11-22T03:50:35.910Z,123.70
2022-11-22T03:52:37.782Z,131.27
2022-11-22T03:54:39.933Z,125.18
2022-11-22T03:56:41.702Z,128.32
2022-11-22T03:58:43.599Z,128.57
2022-11-22T04:00:45.673Z,118.18
2022-11-22T04:02:47.476Z,129.48
2022-11-22T04:04:49.231Z,123.32
2022-11-22T04:06:51.344Z,126.85
2022-11-22T04:08:53.189Z,125.43
2022-11-22T04:10:55.023Z,123.20
2022-11-22T04:12:58.505Z,119.20
2022-11-22T04:15:09.587Z,126.72
2022-11-22T04:17:35.022Z,121.63
2022-11-22T04:19:37.100Z,122.85
2022-11-22T04:21:38.869Z,118.18
2022-11-22T04:23:42.627Z,120.30
2022-11-22T04:25:50.137Z,119.18
2022-11-22T04:27:52.038Z,110.45
2022-11-22T04:29:53.809Z,106.63
2022-11-22T04:32:14.343Z,100.82
2022-11-22T04:34:16.078Z,94.00
2022-11-22T04:36:18.038Z,101.15
2022-11-22T04:38:20.627Z,99.40
2022-11-22T04:40:22.456Z,103.47
2022-11-22T04:42:42.830Z,105.68
2022-11-22T04:44:45.622Z,106.22
2022-11-22T04:46:47.366Z,133.00
2022-11-22T04:48:49.101Z,126.00
2022-11-22T04:51:09.948Z,126.97
2022-11-22T04:53:11.957Z,142.55
2022-11-22T04:55:14.063Z,134.63
2022-11-22T04:57:16.142Z,136.98
2022-11-22T04:59:18.321Z,137.38
2022-11-22T05:01:20.338Z,125.85
2022-11-22T05:03:22.637Z,99.22
2022-11-22T05:05:25.734Z,125.93
2022-11-22T05:07:27.650Z,136.50
2022-11-22T05:09:29.897Z,142.57
2022-11-22T05:11:31.872Z,138.70
2022-11-22T05:13:37.088Z,129.13
2022-11-22T05:15:39.150Z,129.98
2022-11-22T05:17:40.933Z,136.70
2022-11-22T05:19:48.917Z,135.98
2022-11-22T05:21:51.315Z,132.93
2022-11-22T05:23:56.546Z,137.25
2022-11-22T05:25:59.144Z,125.30
2022-11-22T05:28:01.214Z,126.72
2022-11-22T05:30:03.439Z,136.15
2022-11-22T05:32:05.205Z,133.30
2022-11-22T05:34:07.523Z,127.90
2022-11-22T05:36:09.673Z,138.65
2022-11-22T05:38:11.451Z,134.38
2022-11-22T05:40:13.620Z,140.60
2022-11-22T05:42:15.343Z,149.07
2022-11-22T05:44:17.074Z,138.10
2022-11-22T05:46:25.412Z,133.20
2022-11-22T05:48:27.317Z,131.18
2022-11-22T05:50:29.106Z,137.25
2022-11-22T05:52:31.451Z,136.10
2022-11-22T05:54:33.217Z,149.70
2022-11-22T05:56:35.317Z,145.15
2022-11-22T05:58:37.838Z,161.88
2022-11-22T06:00:39.629Z,151.30
2022-11-22T06:02:41.499Z,144.48
2022-11-22T06:04:43.630Z,151.88
2022-11-22T06:06:47.141Z,150.10
2022-11-22T06:08:49.082Z,160.43
2022-11-22T06:10:51.155Z,156.65
2022-11-22T06:12:53.234Z,161.77
2022-11-22T06:14:55.007Z,169.60
2022-11-22T06:16:57.120Z,161.37
2022-11-22T06:18:58.837Z,158.57
2022-11-22T06:21:02.404Z,145.48
2022-11-22T06:23:04.466Z,149.40
2022-11-22T06:25:06.681Z,149.60
2022-11-22T06:27:09.012Z,158.90
2022-11-22T06:29:11.119Z,152.25
2022-11-22T06:31:18.186Z,152.13
2022-11-22T06:33:20.651Z,162.55
2022-11-22T06:35:22.768Z,152.88
2022-11-22T06:37:24.770Z,158.52
2022-11-22T06:39:26.740Z,157.63
2022-11-22T06:41:35.285Z,158.82
2022-11-22T06:43:41.391Z,189.93
2022-11-22T06:45:46.959Z,188.70
2022-11-22T06:47:49.049Z,171.50
2022-11-22T06:49:50.990Z,150.75
2022-11-22T06:51:52.699Z,154.98
2022-11-22T06:53:56.126Z,165.83
2022-11-22T06:58:07.010Z,153.18
2022-11-22T07:00:10.048Z,157.30
2022-11-22T07:02:12.302Z,138.60
2022-11-22T07:04:14.198Z,150.93
2022-11-22T07:06:18.321Z,158.05
2022-11-22T07:08:20.374Z,163.68
2022-11-22T07:10:22.107Z,151.47
2022-11-22T07:12:24.482Z,173.13
2022-11-22T07:14:26.265Z,183.07
2022-11-22T07:16:28.303Z,175.70
2022-11-22T07:18:30.911Z,158.77
2022-11-22T07:20:32.898Z,172.02
2022-11-22T07:22:34.639Z,170.40
2022-11-22T07:24:36.763Z,163.68
2022-11-22T07:26:38.584Z,172.77
2022-11-22T07:28:41.075Z,169.50
2022-11-22T07:32:49.242Z,168.20
2022-11-22T07:34:51.027Z,173.82
2022-11-22T07:36:58.726Z,180.20
2022-11-22T07:39:03.556Z,163.88
2022-11-22T07:41:06.338Z,170.73
2022-11-22T07:45:10.538Z,159.88
2022-11-22T07:47:12.280Z,167.15
2022-11-22T07:49:14.458Z,166.17
2022-11-22T07:51:16.780Z,191.18
2022-11-22T07:53:18.539Z,172.85
2022-11-22T07:55:20.631Z,160.73
2022-11-22T07:57:22.521Z,166.85
2022-11-22T07:59:25.227Z,164.15
2022-11-22T08:01:27.322Z,169.40
2022-11-22T08:03:29.496Z,188.63
2022-11-22T08:05:31.284Z,166.82
2022-11-22T08:07:33.662Z,169.20
2022-11-22T08:09:36.170Z,170.20
2022-11-22T08:11:37.931Z,174.57
2022-11-22T08:13:40.871Z,187.48
2022-11-22T08:15:42.899Z,184.82
2022-11-22T08:17:44.659Z,166.85
2022-11-22T08:19:46.941Z,170.32
2022-11-22T08:21:52.734Z,161.02
2022-11-22T08:23:59.167Z,166.38
2022-11-22T08:26:01.361Z,169.27
2022-11-22T08:28:03.433Z,178.13
2022-11-22T08:30:05.592Z,169.27
2022-11-22T08:32:07.689Z,179.02
2022-11-22T08:34:09.672Z,166.53
2022-11-22T08:36:11.877Z,173.80
2022-11-22T08:38:13.966Z,158.65
2022-11-22T08:40:15.746Z,176.18
2022-11-22T08:42:17.605Z,184.98
2022-11-22T08:44:19.766Z,180.45
2022-11-22T08:46:21.595Z,169.50
2022-11-22T08:48:27.022Z,169.20
2022-11-22T08:50:29.201Z,184.68
2022-11-22T08:52:30.984Z,195.40
2022-11-22T08:54:37.527Z,180.00
2022-11-22T08:56:40.153Z,178.25
2022-11-22T08:58:42.326Z,173.55
2022-11-22T09:00:44.386Z,166.07
2022-11-22T09:02:46.650Z,183.88
2022-11-22T09:04:48.364Z,173.55
2022-11-22T09:09:36.396Z,162.23
2022-11-22T09:11:34.271Z,159.18
2022-11-22T09:13:36.802Z,185.23
2022-11-22T09:15:38.854Z,177.27
2022-11-22T09:17:40.665Z,164.85
2022-11-22T09:19:42.786Z,165.97
2022-11-22T09:21:44.610Z,173.10
2022-11-22T09:23:48.713Z,166.50
2022-11-22T09:26:02.209Z,182.32
2022-11-22T09:30:06.410Z,184.10
2022-11-22T09:32:23.188Z,179.40
2022-11-22T09:36:27.421Z,168.35
2022-11-22T09:38:30.840Z,157.57
2022-11-22T09:40:33.159Z,162.80
2022-11-22T09:42:53.443Z,182.70
2022-11-22T09:45:06.487Z,164.23
2022-11-22T09:47:42.569Z,161.77
2022-11-22T09:49:47.233Z,165.95
2022-11-22T09:51:54.067Z,164.93
2022-11-22T09:54:11.155Z,156.45
2022-11-22T09:56:15.838Z,155.52
2022-11-22T09:58:27.161Z,159.85
2022-11-22T10:00:30.329Z,154.93
2022-11-22T10:02:59.418Z,160.40
2022-11-22T10:05:07.911Z,157.82
2022-11-22T10:07:20.412Z,150.93
2022-11-22T10:09:48.602Z,154.20
2022-11-22T10:12:02.463Z,147.75
2022-11-22T10:14:13.482Z,157.77
2022-11-22T10:16:28.047Z,151.52
2022-11-22T10:19:05.606Z,157.35
2022-11-22T10:21:15.610Z,143.32
2022-11-22T10:23:22.811Z,153.80
2022-11-22T10:25:48.319Z,141.60
2022-11-22T10:28:00.986Z,141.88
2022-11-22T10:30:06.401Z,133.02
2022-11-22T10:32:24.563Z,138.15
2022-11-22T10:34:38.586Z,139.02
2022-11-22T10:37:03.678Z,136.73
2022-11-22T10:39:17.632Z,137.32
2022-11-22T10:41:55.102Z,152.93
2022-11-22T10:44:18.483Z,136.38
2022-11-22T10:46:56.758Z,127.85
2022-11-22T10:49:14.641Z,125.82
2022-11-22T10:51:26.882Z,137.52
2022-11-22T10:53:48.890Z,133.98
2022-11-22T10:56:03.337Z,127.05
2022-11-22T10:58:18.053Z,122.88
2022-11-22T11:00:22.114Z,141.60
2022-11-22T11:03:05.105Z,102.50
2022-11-22T11:05:13.904Z,73.00
2022-11-22T11:07:22.682Z,97.88
2022-11-22T11:12:47.022Z,74.63
2022-11-22T11:14:54.523Z,80.93
2022-11-22T11:16:59.500Z,79.32
2022-11-22T11:19:22.774Z,82.75
2022-11-22T11:21:27.004Z,89.25
2022-11-22T11:23:29.156Z,87.15
2022-11-22T11:25:33.845Z,77.35
2022-11-22T11:27:35.850Z,71.95
2022-11-22T11:29:52.066Z,73.97
2022-11-22T11:32:10.418Z,79.82
2022-11-22T11:34:25.673Z,77.53
2022-11-22T11:36:27.456Z,85.40
2022-11-22T11:38:52.170Z,77.40
2022-11-22T11:40:56.248Z,82.45
2022-11-22T11:43:20.814Z,73.90
2022-11-22T11:45:25.614Z,78.53
2022-11-22T11:47:34.918Z,75.88
2022-11-22T11:49:36.882Z,72.03
2022-11-22T11:51:42.098Z,74.65
2022-11-22T11:53:55.350Z,78.53
2022-11-22T11:58:23.823Z,71.57
2022-11-22T12:00:34.812Z,81.22
2022-11-22T12:02:42.185Z,79.30
2022-11-22T12:04:53.921Z,79.70
2022-11-22T12:07:03.143Z,86.18
2022-11-22T12:09:26.686Z,97.22
2022-11-22T12:11:43.876Z,95.18
2022-11-22T12:14:19.117Z,90.47
2022-11-22T12:16:26.206Z,99.38
2022-11-22T12:18:46.846Z,79.90
2022-11-22T12:20:55.516Z,87.05
2022-11-22T12:23:09.906Z,84.43
2022-11-22T12:25:32.930Z,90.18
2022-11-22T12:27:35.213Z,102.65
2022-11-22T12:29:43.827Z,86.00
2022-11-22T12:31:53.309Z,93.68
2022-11-22T12:34:00.884Z,100.63
2022-11-22T12:36:06.543Z,95.18
2022-11-22T12:38:17.306Z,98.00
2022-11-22T12:40:26.238Z,89.53
2022-11-22T12:42:33.959Z,85.13
2022-11-22T12:44:39.966Z,86.40
2022-11-22T12:46:48.694Z,86.38
2022-11-22T12:48:53.659Z,88.63
2022-11-22T12:51:01.384Z,91.28
2022-11-22T12:53:12.271Z,86.60
2022-11-22T12:55:20.407Z,79.68
2022-11-22T12:57:32.975Z,87.18
2022-11-22T12:59:48.427Z,81.03
2022-11-22T13:02:05.016Z,86.15
2022-11-22T13:04:09.981Z,82.55
2022-11-22T13:06:14.050Z,90.10
2022-11-22T13:08:19.067Z,78.68
2022-11-22T13:10:31.931Z,84.25
2022-11-22T13:12:38.498Z,72.95
2022-11-22T13:15:01.631Z,76.40
2022-11-22T13:17:09.401Z,76.47
2022-11-22T13:19:17.073Z,78.70
2022-11-22T13:21:35.061Z,72.20
2022-11-22T13:24:17.064Z,66.53
2022-11-22T13:26:46.215Z,67.70
2022-11-22T13:28:48.785Z,68.85
2022-11-22T13:31:07.704Z,65.35
2022-11-22T13:33:25.660Z,63.92
2022-11-22T13:35:40.458Z,63.67
2022-11-22T13:37:47.109Z,89.82
2022-11-22T13:39:50.138Z,62.97
2022-11-22T13:42:04.682Z,65.95
2022-11-22T13:44:42.696Z,69.80
2022-11-22T13:47:12.535Z,61.88
2022-11-22T13:49:33.792Z,58.33
2022-11-22T13:51:54.128Z,58.97
2022-11-22T13:54:35.742Z,56.95
2022-11-22T13:56:41.116Z,55.88
2022-11-22T13:59:03.249Z,55.20
2022-11-22T14:01:30.817Z,57.38
2022-11-22T14:03:38.859Z,60.90
2022-11-22T14:05:47.498Z,58.72
2022-11-22T14:07:51.579Z,59.50
2022-11-22T14:09:53.451Z,57.30
2022-11-22T14:12:25.046Z,69.13
2022-11-22T14:14:35.858Z,64.18
2022-11-22T14:16:48.424Z,65.55
2022-11-22T14:19:27.994Z,59.03
2022-11-22T14:22:09.914Z,63.20
2022-11-22T14:24:21.181Z,66.07
2022-11-22T14:26:38.658Z,59.00
2022-11-22T14:29:37.652Z,61.22
2022-11-22T14:31:40.965Z,62.42
2022-11-22T14:34:39.886Z,63.85
2022-11-22T14:36:43.695Z,66.40
2022-11-22T14:38:53.299Z,64.85
2022-11-22T14:41:33.896Z,63.67
2022-11-22T14:43:41.113Z,67.03
2022-11-22T14:46:00.733Z,72.53
2022-11-22T14:48:24.551Z,63.80
2022-11-22T14:50:43.164Z,69.75
2022-11-22T14:52:47.142Z,72.90
2022-11-22T14:54:55.142Z,70.40
2022-11-22T14:57:07.413Z,80.13
2022-11-22T14:59:31.968Z,74.03
2022-11-22T15:01:58.865Z,73.30
2022-11-22T15:09:17.048Z,67.95
2022-11-22T15:09:19.629Z,70.28
2022-11-22T15:10:34.162Z,66.63
2022-11-22T15:13:15.750Z,67.15
2022-11-22T15:57:50.871Z,85.00
2022-11-22T15:59:55.734Z,84.55
2022-11-22T16:02:00.060Z,79.25
2022-11-22T16:04:04.738Z,76.68
2022-11-22T16:06:15.545Z,80.80
2022-11-22T16:08:17.395Z,77.72
2022-11-22T16:10:25.808Z,79.85
2022-11-22T16:12:37.048Z,82.70
2022-11-22T16:14:45.950Z,90.10
2022-11-22T16:16:49.746Z,96.20
2022-11-22T16:19:22.273Z,85.32
2022-11-22T16:21:30.013Z,88.53
2022-11-22T16:23:35.185Z,87.63
2022-11-22T16:25:44.838Z,84.25
2022-11-22T16:27:48.692Z,92.13
2022-11-22T16:29:52.243Z,93.15
2022-11-22T16:34:26.753Z,97.65
2022-11-22T16:36:30.097Z,92.78
2022-11-22T16:40:44.419Z,92.90
2022-11-22T16:42:47.420Z,88.50
2022-11-22T16:46:53.347Z,89.32
2022-11-22T16:48:56.200Z,88.80
2022-11-22T16:53:04.816Z,83.70
2022-11-22T16:55:20.107Z,87.57
2022-11-22T16:57:22.837Z,78.22
2022-11-22T16:59:24.733Z,92.65
2022-11-22T17:01:33.235Z,88.85
2022-11-22T17:03:41.024Z,84.45
2022-11-22T17:05:43.206Z,91.60
2022-11-22T17:07:45.825Z,85.57
2022-11-22T17:09:48.120Z,87.85
2022-11-22T17:11:51.090Z,86.15
2022-11-22T17:15:56.734Z,88.70
2022-11-22T17:17:58.522Z,93.55
2022-11-22T17:20:03.350Z,79.73
2022-11-22T17:24:33.513Z,91.28
2022-11-22T17:26:37.865Z,89.30
2022-11-22T17:28:42.454Z,94.82
2022-11-22T17:30:45.431Z,88.70
2022-11-22T17:32:48.013Z,100.07
2022-11-22T17:34:52.424Z,96.13
2022-11-22T17:36:54.281Z,101.95
2022-11-22T17:38:57.892Z,100.22
2022-11-22T17:43:21.271Z,101.25
2022-11-22T17:45:23.760Z,124.25
2022-11-22T17:47:26.282Z,102.25
2022-11-22T17:49:28.741Z,104.07
2022-11-22T17:51:31.881Z,94.05
2022-11-22T17:53:35.170Z,97.82
2022-11-22T17:56:09.119Z,99.10
2022-11-22T17:58:02.225Z,99.15
2022-11-22T18:00:09.731Z,106.53
2022-11-22T18:02:13.076Z,107.20
2022-11-22T18:04:17.694Z,111.82
2022-11-22T18:06:23.547Z,114.03
2022-11-22T18:08:25.440Z,107.03
2022-11-22T18:10:27.715Z,110.10
2022-11-22T18:12:29.907Z,108.90
2022-11-22T18:14:38.575Z,107.53
2022-11-22T18:16:41.111Z,101.80
2022-11-22T18:18:56.851Z,104.38
2022-11-22T18:20:59.474Z,106.85
2022-11-22T18:23:05.222Z,109.20
2022-11-22T18:25:07.691Z,105.20
2022-11-22T18:27:11.451Z,104.18
2022-11-22T18:31:51.152Z,96.47
2022-11-22T18:33:55.448Z,96.18
2022-11-22T18:36:06.258Z,103.15
2022-11-22T18:38:08.363Z,100.07
2022-11-22T18:40:10.917Z,78.32
2022-11-22T18:42:15.968Z,105.50
2022-11-22T18:44:18.221Z,95.22
2022-11-22T18:46:20.038Z,100.23
2022-11-22T18:48:24.545Z,107.93
2022-11-22T18:50:27.049Z,96.50
2022-11-22T18:52:34.390Z,95.53
2022-11-22T18:54:36.628Z,104.10
2022-11-22T18:56:41.154Z,99.93
2022-11-22T18:58:43.964Z,99.80
2022-11-22T19:00:48.112Z,95.93
2022-11-22T19:02:51.621Z,98.10
2022-11-22T19:04:54.385Z,103.28
2022-11-22T19:06:56.737Z,106.88
2022-11-22T19:08:58.573Z,98.53
2022-11-22T19:11:00.423Z,103.32
2022-11-22T19:13:04.513Z,99.45
2022-11-22T19:15:09.115Z,99.70
2022-11-22T19:17:10.947Z,99.80
2022-11-22T19:19:13.971Z,106.57
2022-11-22T19:21:19.829Z,102.35
2022-11-22T19:23:22.215Z,107.40
2022-11-22T19:25:25.844Z,102.60
2022-11-22T19:27:28.878Z,110.22
2022-11-22T19:29:36.849Z,96.28
2022-11-22T19:31:40.727Z,101.47
2022-11-22T19:33:55.655Z,104.22
2022-11-22T19:35:58.926Z,104.22
2022-11-22T19:38:02.062Z,96.43
2022-11-22T19:40:06.245Z,99.53
2022-11-22T19:42:08.359Z,103.65
2022-11-22T19:44:11.543Z,98.00
2022-11-22T19:46:14.397Z,100.35
2022-11-22T19:48:20.415Z,95.32
2022-11-22T19:50:22.588Z,96.55
2022-11-22T19:52:24.618Z,92.53
2022-11-22T19:54:26.562Z,92.07
2022-11-22T19:56:34.521Z,97.07
2022-11-22T19:58:36.576Z,102.22
2022-11-22T20:00:38.395Z,98.57
2022-11-22T20:02:42.455Z,101.22
2022-11-22T20:04:44.690Z,100.97
2022-11-22T20:06:52.202Z,98.55
2022-11-22T20:09:05.976Z,112.75
2022-11-22T20:11:09.955Z,102.28
2022-11-22T20:13:19.690Z,102.88
2022-11-22T20:15:22.585Z,105.93
2022-11-22T20:17:24.354Z,104.45
2022-11-22T20:19:34.784Z,102.25
2022-11-22T20:21:37.914Z,102.80
2022-11-22T20:23:39.900Z,101.65
2022-11-22T20:25:41.864Z,103.30
2022-11-22T20:27:44.049Z,105.50
2022-11-22T20:29:48.376Z,106.85
2022-11-22T20:31:50.486Z,104.78
2022-11-22T20:33:57.912Z,103.10
2022-11-22T20:36:11.506Z,100.65
2022-11-22T20:38:15.518Z,102.20
2022-11-22T20:40:17.725Z,107.07
2022-11-22T20:44:37.802Z,109.07
2022-11-22T20:46:40.832Z,101.15
2022-11-22T20:48:51.727Z,101.20
2022-11-22T20:50:53.572Z,108.70
2022-11-22T20:52:56.353Z,106.35
2022-11-22T20:55:04.852Z,113.95
2022-11-22T20:57:07.038Z,105.03
2022-11-22T20:59:09.257Z,111.82
2022-11-22T21:01:16.022Z,109.20
2022-11-22T21:03:17.847Z,108.70
2022-11-22T21:05:19.979Z,108.95
2022-11-22T21:07:21.792Z,107.45
2022-11-22T21:09:24.598Z,111.55
2022-11-22T21:11:32.087Z,113.03
2022-11-22T21:13:34.667Z,109.97
2022-11-22T21:15:36.586Z,108.50
2022-11-22T21:17:55.736Z,120.43
2022-11-22T21:20:01.359Z,113.85
2022-11-22T21:22:03.658Z,119.68
2022-11-22T21:24:06.743Z,124.35
2022-11-22T21:26:08.781Z,119.80
2022-11-22T21:28:10.553Z,118.27
2022-11-22T21:30:13.729Z,115.00
2022-11-22T21:32:17.569Z,105.50
2022-11-22T21:34:19.320Z,109.10
2022-11-22T21:36:21.561Z,101.45
2022-11-22T21:38:29.660Z,110.75
2022-11-22T21:40:32.973Z,108.97
2022-11-22T21:42:36.566Z,103.15
2022-11-22T21:44:38.650Z,101.53
2022-11-22T21:46:40.450Z,98.37
2022-11-22T21:48:42.628Z,87.00
2022-11-22T21:50:44.655Z,100.70
2022-11-22T21:52:48.961Z,117.50
2022-11-22T21:54:54.447Z,106.80
2022-11-22T21:56:59.905Z,105.10
2022-11-22T21:59:06.290Z,112.13
2022-11-22T22:01:14.225Z,102.72
2022-11-22T22:03:16.957Z,107.07
2022-11-22T22:05:19.578Z,105.03
2022-11-22T22:07:50.978Z,103.63
2022-11-22T22:09:43.737Z,106.25
2022-11-22T22:11:47.819Z,112.70
2022-11-22T22:13:53.209Z,104.53
2022-11-22T22:15:59.493Z,103.88
2022-11-22T22:18:03.598Z,102.80
2022-11-22T22:20:06.849Z,95.45
2022-11-22T22:24:11.674Z,100.30
2022-11-22T22:26:16.615Z,94.90
2022-11-22T22:28:18.474Z,100.45
2022-11-22T22:30:23.060Z,103.45
2022-11-22T22:32:26.984Z,102.20
2022-11-22T22:34:29.001Z,103.00
2022-11-22T22:36:30.856Z,102.47
2022-11-22T22:38:33.634Z,107.88
2022-11-22T22:40:35.397Z,105.35
2022-11-22T22:42:37.493Z,103.27
2022-11-22T22:44:41.231Z,100.17
2022-11-22T22:46:43.081Z,97.47
2022-11-22T22:48:45.995Z,100.88
2022-11-22T22:50:48.204Z,105.28
2022-11-22T22:52:50.131Z,104.93
2022-11-22T22:54:51.924Z,114.22
2022-11-22T22:56:54.032Z,112.80
2022-11-22T22:58:57.303Z,111.00
2022-11-22T23:01:12.620Z,109.57
2022-11-22T23:03:14.807Z,115.13
2022-11-22T23:05:17.044Z,106.90
2022-11-22T23:07:18.892Z,111.28
2022-11-22T23:09:22.015Z,109.60
2022-11-22T23:11:45.437Z,113.93
2022-11-22T23:13:47.251Z,111.35
2022-11-22T23:15:58.361Z,108.40
2022-11-22T23:18:00.821Z,103.82
2022-11-22T23:20:02.697Z,112.77
2022-11-22T23:22:05.304Z,108.57
2022-11-22T23:24:08.189Z,113.25
2022-11-22T23:26:12.301Z,102.45
2022-11-22T23:28:14.513Z,107.88
2022-11-22T23:30:16.672Z,105.63
2022-11-22T23:32:18.509Z,108.18
2022-11-22T23:34:20.723Z,110.40
2022-11-22T23:36:23.022Z,105.95
2022-11-22T23:38:24.755Z,115.43
2022-11-22T23:40:27.122Z,112.50
2022-11-22T23:42:29.692Z,105.60
2022-11-22T23:44:31.444Z,105.82
2022-11-22T23:46:33.716Z,112.18
2022-11-22T23:48:35.569Z,109.78
2022-11-22T23:50:37.712Z,106.03
2022-11-22T23:52:39.824Z,108.45
2022-11-22T23:54:41.579Z,107.82
2022-11-22T23:56:43.616Z,105.60
2022-11-22T23:58:45.757Z,111.68
